sensor_id;sensor_type;location;lat;lon;timestamp;P1;durP1;ratioP1;P2;durP2;ratioP2
15536;SDS011;7870;52.448;13.270;2022-11-15T00:00:05;8.48;;;3.38;;
15536;SDS011;7870;52.448;13.270;2022-11-15T00:02:54;6.63;;;2.80;;
15536;SDS011;7870;52.448;13.270;2022-11-15T00:05:39;10.63;;;4.63;;
15536;SDS011;7870;52.448;13.270;2022-11-15T00:08:24;9.45;;;4.07;;
15536;SDS011;7870;52.448;13.270;2022-11-15T00:11:09;8.80;;;4.65;;
15536;SDS011;7870;52.448;13.270;2022-11-15T00:13:55;8.50;;;4.07;;
15536;SDS011;7870;52.448;13.270;2022-11-15T00:16:40;7.97;;;4.10;;
15536;SDS011;7870;52.448;13.270;2022-11-15T00:19:25;10.70;;;3.90;;
15536;SDS011;7870;52.448;13.270;2022-11-15T00:22:10;6.60;;;2.83;;
15536;SDS011;7870;52.448;13.270;2022-11-15T00:24:55;12.68;;;4.65;;
15536;SDS011;7870;52.448;13.270;2022-11-15T00:27:39;9.43;;;4.28;;
15536;SDS011;7870;52.448;13.270;2022-11-15T00:30:24;9.25;;;4.28;;
15536;SDS011;7870;52.448;13.270;2022-11-15T00:33:09;6.72;;;3.33;;
15536;SDS011;7870;52.448;13.270;2022-11-15T00:35:59;6.22;;;2.88;;
15536;SDS011;7870;52.448;13.270;2022-11-15T00:38:44;10.55;;;3.78;;
15536;SDS011;7870;52.448;13.270;2022-11-15T00:41:28;6.28;;;3.50;;
15536;SDS011;7870;52.448;13.270;2022-11-15T00:44:13;11.90;;;3.80;;
15536;SDS011;7870;52.448;13.270;2022-11-15T00:46:58;7.38;;;3.75;;
15536;SDS011;7870;52.448;13.270;2022-11-15T00:49:42;6.45;;;3.72;;
15536;SDS011;7870;52.448;13.270;2022-11-15T00:52:28;8.10;;;3.65;;
15536;SDS011;7870;52.448;13.270;2022-11-15T00:55:13;7.38;;;3.85;;
15536;SDS011;7870;52.448;13.270;2022-11-15T00:57:59;7.70;;;3.28;;
15536;SDS011;7870;52.448;13.270;2022-11-15T01:00:44;9.27;;;4.35;;
15536;SDS011;7870;52.448;13.270;2022-11-15T01:03:31;8.23;;;3.83;;
15536;SDS011;7870;52.448;13.270;2022-11-15T01:06:17;10.77;;;4.47;;
15536;SDS011;7870;52.448;13.270;2022-11-15T01:09:02;7.45;;;3.30;;
15536;SDS011;7870;52.448;13.270;2022-11-15T01:11:47;8.30;;;4.13;;
15536;SDS011;7870;52.448;13.270;2022-11-15T01:14:32;7.43;;;3.67;;
15536;SDS011;7870;52.448;13.270;2022-11-15T01:17:17;12.30;;;5.15;;
15536;SDS011;7870;52.448;13.270;2022-11-15T01:20:02;10.50;;;4.10;;
15536;SDS011;7870;52.448;13.270;2022-11-15T01:22:47;9.30;;;3.97;;
15536;SDS011;7870;52.448;13.270;2022-11-15T01:25:31;10.00;;;4.00;;
15536;SDS011;7870;52.448;13.270;2022-11-15T01:28:16;9.93;;;3.72;;
15536;SDS011;7870;52.448;13.270;2022-11-15T01:31:02;9.38;;;3.53;;
15536;SDS011;7870;52.448;13.270;2022-11-15T01:33:48;8.10;;;3.40;;
15536;SDS011;7870;52.448;13.270;2022-11-15T01:36:33;8.60;;;3.33;;
15536;SDS011;7870;52.448;13.270;2022-11-15T01:39:18;9.45;;;3.42;;
15536;SDS011;7870;52.448;13.270;2022-11-15T01:42:03;7.88;;;3.17;;
15536;SDS011;7870;52.448;13.270;2022-11-15T01:44:51;8.75;;;3.97;;
15536;SDS011;7870;52.448;13.270;2022-11-15T01:47:38;10.57;;;4.72;;
15536;SDS011;7870;52.448;13.270;2022-11-15T01:50:26;6.13;;;3.97;;
15536;SDS011;7870;52.448;13.270;2022-11-15T01:53:12;9.00;;;4.15;;
15536;SDS011;7870;52.448;13.270;2022-11-15T01:55:57;6.78;;;3.47;;
15536;SDS011;7870;52.448;13.270;2022-11-15T01:58:42;6.25;;;2.83;;
15536;SDS011;7870;52.448;13.270;2022-11-15T02:01:28;9.73;;;4.00;;
15536;SDS011;7870;52.448;13.270;2022-11-15T02:04:22;8.50;;;4.07;;
15536;SDS011;7870;52.448;13.270;2022-11-15T02:07:09;7.05;;;3.25;;
15536;SDS011;7870;52.448;13.270;2022-11-15T02:09:55;6.18;;;3.55;;
15536;SDS011;7870;52.448;13.270;2022-11-15T02:12:42;8.63;;;3.85;;
15536;SDS011;7870;52.448;13.270;2022-11-15T02:15:30;9.00;;;3.95;;
15536;SDS011;7870;52.448;13.270;2022-11-15T02:18:24;7.50;;;3.63;;
15536;SDS011;7870;52.448;13.270;2022-11-15T02:21:15;8.45;;;3.75;;
15536;SDS011;7870;52.448;13.270;2022-11-15T02:24:06;7.97;;;3.63;;
15536;SDS011;7870;52.448;13.270;2022-11-15T02:27:02;10.93;;;3.75;;
15536;SDS011;7870;52.448;13.270;2022-11-15T02:29:58;10.20;;;4.70;;
15536;SDS011;7870;52.448;13.270;2022-11-15T02:33:00;8.88;;;3.15;;
15536;SDS011;7870;52.448;13.270;2022-11-15T02:35:59;8.73;;;3.40;;
15536;SDS011;7870;52.448;13.270;2022-11-15T02:38:54;9.38;;;3.10;;
15536;SDS011;7870;52.448;13.270;2022-11-15T02:41:42;9.18;;;3.78;;
15536;SDS011;7870;52.448;13.270;2022-11-15T02:44:32;8.25;;;3.38;;
15536;SDS011;7870;52.448;13.270;2022-11-15T02:47:20;9.82;;;3.92;;
15536;SDS011;7870;52.448;13.270;2022-11-15T02:50:06;10.10;;;3.90;;
15536;SDS011;7870;52.448;13.270;2022-11-15T02:52:52;8.65;;;4.40;;
15536;SDS011;7870;52.448;13.270;2022-11-15T02:55:38;6.40;;;3.20;;
15536;SDS011;7870;52.448;13.270;2022-11-15T03:01:38;6.40;;;3.53;;
15536;SDS011;7870;52.448;13.270;2022-11-15T03:07:18;8.65;;;3.72;;
15536;SDS011;7870;52.448;13.270;2022-11-15T03:12:57;7.55;;;3.45;;
15536;SDS011;7870;52.448;13.270;2022-11-15T03:15:58;9.93;;;4.40;;
15536;SDS011;7870;52.448;13.270;2022-11-15T03:18:53;13.88;;;4.15;;
15536;SDS011;7870;52.448;13.270;2022-11-15T03:21:40;13.95;;;5.00;;
15536;SDS011;7870;52.448;13.270;2022-11-15T03:24:25;8.77;;;3.00;;
15536;SDS011;7870;52.448;13.270;2022-11-15T03:27:14;9.57;;;4.25;;
15536;SDS011;7870;52.448;13.270;2022-11-15T03:30:02;6.55;;;3.10;;
15536;SDS011;7870;52.448;13.270;2022-11-15T03:32:50;6.75;;;3.10;;
15536;SDS011;7870;52.448;13.270;2022-11-15T03:35:40;8.82;;;3.58;;
15536;SDS011;7870;52.448;13.270;2022-11-15T03:38:29;11.52;;;5.03;;
15536;SDS011;7870;52.448;13.270;2022-11-15T03:41:21;5.63;;;3.08;;
15536;SDS011;7870;52.448;13.270;2022-11-15T03:44:54;8.40;;;3.53;;
15536;SDS011;7870;52.448;13.270;2022-11-15T03:47:16;7.95;;;3.75;;
15536;SDS011;7870;52.448;13.270;2022-11-15T03:50:04;6.55;;;3.13;;
15536;SDS011;7870;52.448;13.270;2022-11-15T03:52:51;7.72;;;4.07;;
15536;SDS011;7870;52.448;13.270;2022-11-15T03:55:38;7.70;;;3.67;;
15536;SDS011;7870;52.448;13.270;2022-11-15T03:58:23;10.43;;;4.00;;
15536;SDS011;7870;52.448;13.270;2022-11-15T04:01:08;8.20;;;3.83;;
15536;SDS011;7870;52.448;13.270;2022-11-15T04:03:53;9.95;;;3.78;;
15536;SDS011;7870;52.448;13.270;2022-11-15T04:06:38;9.98;;;3.60;;
15536;SDS011;7870;52.448;13.270;2022-11-15T04:09:23;14.18;;;4.35;;
15536;SDS011;7870;52.448;13.270;2022-11-15T04:12:08;10.70;;;4.40;;
15536;SDS011;7870;52.448;13.270;2022-11-15T04:14:52;7.22;;;3.78;;
15536;SDS011;7870;52.448;13.270;2022-11-15T04:17:52;9.35;;;3.63;;
15536;SDS011;7870;52.448;13.270;2022-11-15T04:20:38;9.50;;;4.88;;
15536;SDS011;7870;52.448;13.270;2022-11-15T04:23:41;10.05;;;4.63;;
15536;SDS011;7870;52.448;13.270;2022-11-15T04:26:45;8.13;;;3.20;;
15536;SDS011;7870;52.448;13.270;2022-11-15T04:29:30;5.95;;;3.45;;
15536;SDS011;7870;52.448;13.270;2022-11-15T04:32:21;8.23;;;4.57;;
15536;SDS011;7870;52.448;13.270;2022-11-15T04:35:06;8.23;;;3.70;;
15536;SDS011;7870;52.448;13.270;2022-11-15T04:37:51;10.07;;;4.85;;
15536;SDS011;7870;52.448;13.270;2022-11-15T04:40:37;8.93;;;4.20;;
15536;SDS011;7870;52.448;13.270;2022-11-15T04:43:22;10.48;;;3.72;;
15536;SDS011;7870;52.448;13.270;2022-11-15T04:46:06;8.93;;;3.47;;
15536;SDS011;7870;52.448;13.270;2022-11-15T04:48:52;9.38;;;3.38;;
15536;SDS011;7870;52.448;13.270;2022-11-15T04:51:43;6.50;;;4.10;;
15536;SDS011;7870;52.448;13.270;2022-11-15T04:54:28;8.48;;;4.85;;
15536;SDS011;7870;52.448;13.270;2022-11-15T04:57:13;7.40;;;3.35;;
15536;SDS011;7870;52.448;13.270;2022-11-15T04:59:58;9.25;;;3.60;;
15536;SDS011;7870;52.448;13.270;2022-11-15T05:02:43;8.05;;;3.20;;
15536;SDS011;7870;52.448;13.270;2022-11-15T05:05:47;8.77;;;3.75;;
15536;SDS011;7870;52.448;13.270;2022-11-15T05:08:32;12.43;;;4.03;;
15536;SDS011;7870;52.448;13.270;2022-11-15T05:11:17;9.77;;;4.32;;
15536;SDS011;7870;52.448;13.270;2022-11-15T05:14:02;11.98;;;5.05;;
15536;SDS011;7870;52.448;13.270;2022-11-15T05:16:46;8.60;;;3.65;;
15536;SDS011;7870;52.448;13.270;2022-11-15T05:19:31;6.68;;;3.10;;
15536;SDS011;7870;52.448;13.270;2022-11-15T05:22:16;8.23;;;3.83;;
15536;SDS011;7870;52.448;13.270;2022-11-15T05:25:01;6.05;;;2.85;;
15536;SDS011;7870;52.448;13.270;2022-11-15T05:27:46;6.78;;;3.47;;
15536;SDS011;7870;52.448;13.270;2022-11-15T05:30:31;4.80;;;2.58;;
15536;SDS011;7870;52.448;13.270;2022-11-15T05:33:16;7.32;;;3.17;;
15536;SDS011;7870;52.448;13.270;2022-11-15T05:36:07;9.48;;;2.70;;
15536;SDS011;7870;52.448;13.270;2022-11-15T05:38:52;6.03;;;3.60;;
15536;SDS011;7870;52.448;13.270;2022-11-15T05:41:42;9.70;;;4.10;;
15536;SDS011;7870;52.448;13.270;2022-11-15T05:44:29;7.97;;;3.50;;
15536;SDS011;7870;52.448;13.270;2022-11-15T05:47:20;6.55;;;2.70;;
15536;SDS011;7870;52.448;13.270;2022-11-15T05:50:06;9.00;;;2.90;;
15536;SDS011;7870;52.448;13.270;2022-11-15T05:52:55;9.68;;;4.00;;
15536;SDS011;7870;52.448;13.270;2022-11-15T05:55:46;5.82;;;2.85;;
15536;SDS011;7870;52.448;13.270;2022-11-15T05:58:32;8.15;;;3.72;;
15536;SDS011;7870;52.448;13.270;2022-11-15T06:01:21;7.43;;;3.45;;
15536;SDS011;7870;52.448;13.270;2022-11-15T06:04:06;6.53;;;3.17;;
15536;SDS011;7870;52.448;13.270;2022-11-15T06:06:51;7.95;;;3.50;;
15536;SDS011;7870;52.448;13.270;2022-11-15T06:09:36;7.93;;;3.60;;
15536;SDS011;7870;52.448;13.270;2022-11-15T06:12:21;5.55;;;3.42;;
15536;SDS011;7870;52.448;13.270;2022-11-15T06:15:06;7.50;;;3.38;;
15536;SDS011;7870;52.448;13.270;2022-11-15T06:17:52;9.13;;;3.40;;
15536;SDS011;7870;52.448;13.270;2022-11-15T06:20:36;8.57;;;3.90;;
15536;SDS011;7870;52.448;13.270;2022-11-15T06:23:21;8.75;;;4.05;;
15536;SDS011;7870;52.448;13.270;2022-11-15T06:26:09;10.05;;;4.38;;
15536;SDS011;7870;52.448;13.270;2022-11-15T06:28:54;6.63;;;2.78;;
15536;SDS011;7870;52.448;13.270;2022-11-15T06:31:39;7.32;;;3.00;;
15536;SDS011;7870;52.448;13.270;2022-11-15T06:34:24;5.63;;;3.13;;
15536;SDS011;7870;52.448;13.270;2022-11-15T06:37:09;8.18;;;3.88;;
15536;SDS011;7870;52.448;13.270;2022-11-15T06:39:53;7.97;;;3.42;;
15536;SDS011;7870;52.448;13.270;2022-11-15T06:42:38;3.88;;;2.30;;
15536;SDS011;7870;52.448;13.270;2022-11-15T06:45:23;6.00;;;2.78;;
15536;SDS011;7870;52.448;13.270;2022-11-15T06:48:08;6.00;;;2.70;;
15536;SDS011;7870;52.448;13.270;2022-11-15T06:50:53;7.70;;;3.67;;
15536;SDS011;7870;52.448;13.270;2022-11-15T06:53:38;5.93;;;3.20;;
15536;SDS011;7870;52.448;13.270;2022-11-15T06:56:23;6.53;;;3.20;;
15536;SDS011;7870;52.448;13.270;2022-11-15T06:59:08;7.50;;;3.58;;
15536;SDS011;7870;52.448;13.270;2022-11-15T07:01:53;7.20;;;2.92;;
15536;SDS011;7870;52.448;13.270;2022-11-15T07:04:37;8.10;;;3.13;;
15536;SDS011;7870;52.448;13.270;2022-11-15T07:07:22;9.27;;;3.42;;
15536;SDS011;7870;52.448;13.270;2022-11-15T07:10:08;7.68;;;3.40;;
15536;SDS011;7870;52.448;13.270;2022-11-15T07:12:54;6.22;;;2.67;;
15536;SDS011;7870;52.448;13.270;2022-11-15T07:15:39;5.82;;;2.72;;
15536;SDS011;7870;52.448;13.270;2022-11-15T07:18:24;6.45;;;3.08;;
15536;SDS011;7870;52.448;13.270;2022-11-15T07:21:09;10.68;;;3.38;;
15536;SDS011;7870;52.448;13.270;2022-11-15T07:23:55;7.18;;;3.13;;
15536;SDS011;7870;52.448;13.270;2022-11-15T07:26:40;6.15;;;3.22;;
15536;SDS011;7870;52.448;13.270;2022-11-15T07:29:24;11.52;;;3.70;;
15536;SDS011;7870;52.448;13.270;2022-11-15T07:32:09;7.18;;;2.83;;
15536;SDS011;7870;52.448;13.270;2022-11-15T07:34:54;8.25;;;3.78;;
15536;SDS011;7870;52.448;13.270;2022-11-15T07:37:39;12.88;;;5.13;;
15536;SDS011;7870;52.448;13.270;2022-11-15T07:40:25;6.15;;;3.13;;
15536;SDS011;7870;52.448;13.270;2022-11-15T07:43:10;6.78;;;3.05;;
15536;SDS011;7870;52.448;13.270;2022-11-15T07:45:55;7.78;;;2.83;;
15536;SDS011;7870;52.448;13.270;2022-11-15T07:48:43;7.38;;;2.80;;
15536;SDS011;7870;52.448;13.270;2022-11-15T07:51:29;9.32;;;3.53;;
15536;SDS011;7870;52.448;13.270;2022-11-15T07:54:14;5.30;;;2.50;;
15536;SDS011;7870;52.448;13.270;2022-11-15T07:56:59;7.45;;;3.45;;
15536;SDS011;7870;52.448;13.270;2022-11-15T07:59:51;11.57;;;4.05;;
15536;SDS011;7870;52.448;13.270;2022-11-15T08:02:36;7.05;;;3.30;;
15536;SDS011;7870;52.448;13.270;2022-11-15T08:05:21;9.65;;;3.50;;
15536;SDS011;7870;52.448;13.270;2022-11-15T08:08:06;9.25;;;4.05;;
15536;SDS011;7870;52.448;13.270;2022-11-15T08:10:52;7.43;;;3.20;;
15536;SDS011;7870;52.448;13.270;2022-11-15T08:13:36;7.47;;;3.35;;
15536;SDS011;7870;52.448;13.270;2022-11-15T08:16:21;6.72;;;3.55;;
15536;SDS011;7870;52.448;13.270;2022-11-15T08:19:06;7.63;;;3.20;;
15536;SDS011;7870;52.448;13.270;2022-11-15T08:21:51;8.70;;;3.70;;
15536;SDS011;7870;52.448;13.270;2022-11-15T08:24:36;8.77;;;3.85;;
15536;SDS011;7870;52.448;13.270;2022-11-15T08:27:21;8.32;;;4.13;;
15536;SDS011;7870;52.448;13.270;2022-11-15T08:30:07;6.68;;;3.45;;
15536;SDS011;7870;52.448;13.270;2022-11-15T08:32:52;12.95;;;4.53;;
15536;SDS011;7870;52.448;13.270;2022-11-15T08:35:38;8.30;;;3.28;;
15536;SDS011;7870;52.448;13.270;2022-11-15T08:38:23;9.77;;;3.40;;
15536;SDS011;7870;52.448;13.270;2022-11-15T08:41:10;7.93;;;3.60;;
15536;SDS011;7870;52.448;13.270;2022-11-15T08:43:55;6.75;;;2.75;;
15536;SDS011;7870;52.448;13.270;2022-11-15T08:49:36;8.88;;;3.50;;
15536;SDS011;7870;52.448;13.270;2022-11-15T08:52:21;5.95;;;2.65;;
15536;SDS011;7870;52.448;13.270;2022-11-15T08:55:06;7.25;;;3.00;;
15536;SDS011;7870;52.448;13.270;2022-11-15T08:57:51;7.25;;;3.63;;
15536;SDS011;7870;52.448;13.270;2022-11-15T09:00:35;9.23;;;3.80;;
15536;SDS011;7870;52.448;13.270;2022-11-15T09:03:21;8.77;;;3.47;;
15536;SDS011;7870;52.448;13.270;2022-11-15T09:06:06;6.28;;;2.80;;
15536;SDS011;7870;52.448;13.270;2022-11-15T09:08:51;6.38;;;3.22;;
15536;SDS011;7870;52.448;13.270;2022-11-15T09:11:36;8.65;;;3.10;;
15536;SDS011;7870;52.448;13.270;2022-11-15T09:14:20;6.50;;;2.75;;
15536;SDS011;7870;52.448;13.270;2022-11-15T09:17:08;10.85;;;4.13;;
15536;SDS011;7870;52.448;13.270;2022-11-15T09:19:54;5.80;;;2.90;;
15536;SDS011;7870;52.448;13.270;2022-11-15T09:22:38;6.30;;;3.10;;
15536;SDS011;7870;52.448;13.270;2022-11-15T09:25:23;4.32;;;2.55;;
15536;SDS011;7870;52.448;13.270;2022-11-15T09:28:09;8.02;;;2.83;;
15536;SDS011;7870;52.448;13.270;2022-11-15T09:31:00;8.10;;;3.20;;
15536;SDS011;7870;52.448;13.270;2022-11-15T09:33:45;6.55;;;2.88;;
15536;SDS011;7870;52.448;13.270;2022-11-15T09:36:30;6.53;;;3.13;;
15536;SDS011;7870;52.448;13.270;2022-11-15T09:39:15;6.78;;;3.22;;
15536;SDS011;7870;52.448;13.270;2022-11-15T09:42:14;8.75;;;2.58;;
15536;SDS011;7870;52.448;13.270;2022-11-15T09:50:54;4.97;;;2.33;;
15536;SDS011;7870;52.448;13.270;2022-11-15T09:53:38;5.50;;;2.50;;
15536;SDS011;7870;52.448;13.270;2022-11-15T09:56:31;6.38;;;3.03;;
15536;SDS011;7870;52.448;13.270;2022-11-15T09:59:20;5.75;;;2.67;;
15536;SDS011;7870;52.448;13.270;2022-11-15T10:04:16;8.40;;;2.88;;
15536;SDS011;7870;52.448;13.270;2022-11-15T10:06:46;6.60;;;3.03;;
15536;SDS011;7870;52.448;13.270;2022-11-15T10:09:17;9.05;;;3.65;;
15536;SDS011;7870;52.448;13.270;2022-11-15T10:11:49;9.00;;;3.60;;
15536;SDS011;7870;52.448;13.270;2022-11-15T10:14:17;8.00;;;3.08;;
15536;SDS011;7870;52.448;13.270;2022-11-15T10:21:50;8.43;;;3.10;;
15536;SDS011;7870;52.448;13.270;2022-11-15T10:24:19;5.25;;;2.03;;
15536;SDS011;7870;52.448;13.270;2022-11-15T10:26:46;5.90;;;2.65;;
15536;SDS011;7870;52.448;13.270;2022-11-15T10:29:23;8.93;;;3.42;;
15536;SDS011;7870;52.448;13.270;2022-11-15T10:31:52;6.05;;;2.33;;
15536;SDS011;7870;52.448;13.270;2022-11-15T10:34:20;5.05;;;2.33;;
15536;SDS011;7870;52.448;13.270;2022-11-15T10:36:59;4.57;;;2.38;;
15536;SDS011;7870;52.448;13.270;2022-11-15T10:39:27;4.28;;;1.90;;
15536;SDS011;7870;52.448;13.270;2022-11-15T10:41:53;7.07;;;3.05;;
15536;SDS011;7870;52.448;13.270;2022-11-15T10:44:21;3.83;;;2.10;;
15536;SDS011;7870;52.448;13.270;2022-11-15T10:47:34;7.13;;;2.60;;
15536;SDS011;7870;52.448;13.270;2022-11-15T10:49:35;7.53;;;3.03;;
15536;SDS011;7870;52.448;13.270;2022-11-15T10:52:02;6.10;;;2.78;;
15536;SDS011;7870;52.448;13.270;2022-11-15T10:54:30;5.13;;;2.63;;
15536;SDS011;7870;52.448;13.270;2022-11-15T10:56:59;3.38;;;2.08;;
15536;SDS011;7870;52.448;13.270;2022-11-15T10:59:28;6.18;;;2.63;;
15536;SDS011;7870;52.448;13.270;2022-11-15T11:02:00;5.10;;;2.20;;
15536;SDS011;7870;52.448;13.270;2022-11-15T11:04:26;5.07;;;1.85;;
15536;SDS011;7870;52.448;13.270;2022-11-15T11:06:53;3.97;;;2.45;;
15536;SDS011;7870;52.448;13.270;2022-11-15T11:09:27;5.55;;;2.15;;
15536;SDS011;7870;52.448;13.270;2022-11-15T11:11:54;4.05;;;2.08;;
15536;SDS011;7870;52.448;13.270;2022-11-15T11:14:24;5.53;;;2.55;;
15536;SDS011;7870;52.448;13.270;2022-11-15T11:16:54;6.93;;;3.30;;
15536;SDS011;7870;52.448;13.270;2022-11-15T11:19:31;8.10;;;2.78;;
15536;SDS011;7870;52.448;13.270;2022-11-15T11:22:05;5.60;;;2.33;;
15536;SDS011;7870;52.448;13.270;2022-11-15T11:27:08;6.15;;;2.03;;
15536;SDS011;7870;52.448;13.270;2022-11-15T11:29:43;4.30;;;2.00;;
15536;SDS011;7870;52.448;13.270;2022-11-15T11:32:34;4.88;;;2.50;;
15536;SDS011;7870;52.448;13.270;2022-11-15T11:37:50;4.35;;;2.00;;
15536;SDS011;7870;52.448;13.270;2022-11-15T11:40:28;5.50;;;2.20;;
15536;SDS011;7870;52.448;13.270;2022-11-15T11:45:42;5.65;;;2.42;;
15536;SDS011;7870;52.448;13.270;2022-11-15T11:48:13;5.72;;;2.33;;
15536;SDS011;7870;52.448;13.270;2022-11-15T11:50:40;5.28;;;2.40;;
15536;SDS011;7870;52.448;13.270;2022-11-15T11:53:12;6.10;;;2.55;;
15536;SDS011;7870;52.448;13.270;2022-11-15T11:55:41;3.88;;;1.73;;
15536;SDS011;7870;52.448;13.270;2022-11-15T11:58:12;5.60;;;2.20;;
15536;SDS011;7870;52.448;13.270;2022-11-15T12:03:42;6.57;;;2.05;;
15536;SDS011;7870;52.448;13.270;2022-11-15T12:06:20;6.47;;;1.92;;
15536;SDS011;7870;52.448;13.270;2022-11-15T12:08:57;5.05;;;2.15;;
15536;SDS011;7870;52.448;13.270;2022-11-15T12:13:51;4.68;;;1.83;;
15536;SDS011;7870;52.448;13.270;2022-11-15T12:16:23;6.68;;;1.90;;
15536;SDS011;7870;52.448;13.270;2022-11-15T12:18:52;3.88;;;1.80;;
15536;SDS011;7870;52.448;13.270;2022-11-15T12:24:06;2.30;;;1.17;;
15536;SDS011;7870;52.448;13.270;2022-11-15T12:26:35;2.50;;;1.27;;
15536;SDS011;7870;52.448;13.270;2022-11-15T12:29:05;3.20;;;1.53;;
15536;SDS011;7870;52.448;13.270;2022-11-15T12:31:39;3.28;;;1.48;;
15536;SDS011;7870;52.448;13.270;2022-11-15T12:36:46;4.57;;;1.63;;
15536;SDS011;7870;52.448;13.270;2022-11-15T12:39:14;4.43;;;1.60;;
15536;SDS011;7870;52.448;13.270;2022-11-15T12:41:44;2.15;;;1.20;;
15536;SDS011;7870;52.448;13.270;2022-11-15T13:17:37;4.32;;;1.65;;
15536;SDS011;7870;52.448;13.270;2022-11-15T13:28:02;2.80;;;1.30;;
15536;SDS011;7870;52.448;13.270;2022-11-15T13:30:35;3.38;;;1.05;;
15536;SDS011;7870;52.448;13.270;2022-11-15T13:33:09;2.83;;;1.17;;
15536;SDS011;7870;52.448;13.270;2022-11-15T13:35:38;2.55;;;1.33;;
15536;SDS011;7870;52.448;13.270;2022-11-15T13:38:05;2.25;;;1.30;;
15536;SDS011;7870;52.448;13.270;2022-11-15T13:40:36;2.90;;;1.48;;
15536;SDS011;7870;52.448;13.270;2022-11-15T13:46:06;2.85;;;1.42;;
15536;SDS011;7870;52.448;13.270;2022-11-15T13:48:32;2.60;;;1.30;;
15536;SDS011;7870;52.448;13.270;2022-11-15T13:51:04;1.65;;;0.90;;
15536;SDS011;7870;52.448;13.270;2022-11-15T13:53:32;2.50;;;1.15;;
15536;SDS011;7870;52.448;13.270;2022-11-15T13:55:59;3.38;;;1.30;;
15536;SDS011;7870;52.448;13.270;2022-11-15T13:58:25;3.05;;;1.40;;
15536;SDS011;7870;52.448;13.270;2022-11-15T14:01:01;2.22;;;1.10;;
15536;SDS011;7870;52.448;13.270;2022-11-15T14:03:32;2.47;;;1.27;;
15536;SDS011;7870;52.448;13.270;2022-11-15T14:06:03;3.50;;;1.42;;
15536;SDS011;7870;52.448;13.270;2022-11-15T14:08:33;4.32;;;1.65;;
15536;SDS011;7870;52.448;13.270;2022-11-15T14:11:09;2.70;;;1.23;;
15536;SDS011;7870;52.448;13.270;2022-11-15T14:13:36;3.40;;;1.83;;
15536;SDS011;7870;52.448;13.270;2022-11-15T14:16:16;3.05;;;1.30;;
15536;SDS011;7870;52.448;13.270;2022-11-15T14:18:48;2.80;;;1.40;;
15536;SDS011;7870;52.448;13.270;2022-11-15T14:21:15;4.95;;;2.00;;
15536;SDS011;7870;52.448;13.270;2022-11-15T14:23:42;5.22;;;1.55;;
15536;SDS011;7870;52.448;13.270;2022-11-15T14:28:53;4.85;;;1.95;;
15536;SDS011;7870;52.448;13.270;2022-11-15T14:31:19;5.45;;;2.08;;
15536;SDS011;7870;52.448;13.270;2022-11-15T14:33:46;5.70;;;2.15;;
15536;SDS011;7870;52.448;13.270;2022-11-15T14:36:13;4.55;;;1.90;;
15536;SDS011;7870;52.448;13.270;2022-11-15T14:38:40;6.93;;;1.92;;
15536;SDS011;7870;52.448;13.270;2022-11-15T14:41:22;5.45;;;2.15;;
15536;SDS011;7870;52.448;13.270;2022-11-15T14:43:49;4.97;;;1.90;;
15536;SDS011;7870;52.448;13.270;2022-11-15T14:46:15;4.50;;;2.08;;
15536;SDS011;7870;52.448;13.270;2022-11-15T14:48:42;3.55;;;1.95;;
15536;SDS011;7870;52.448;13.270;2022-11-15T14:51:12;2.53;;;1.42;;
15536;SDS011;7870;52.448;13.270;2022-11-15T14:53:41;4.85;;;1.83;;
15536;SDS011;7870;52.448;13.270;2022-11-15T14:56:08;3.08;;;1.60;;
15536;SDS011;7870;52.448;13.270;2022-11-15T14:58:34;5.20;;;2.35;;
15536;SDS011;7870;52.448;13.270;2022-11-15T15:01:01;3.60;;;1.67;;
15536;SDS011;7870;52.448;13.270;2022-11-15T15:03:28;4.53;;;2.45;;
15536;SDS011;7870;52.448;13.270;2022-11-15T15:05:54;3.83;;;1.92;;
15536;SDS011;7870;52.448;13.270;2022-11-15T15:08:22;4.30;;;1.83;;
15536;SDS011;7870;52.448;13.270;2022-11-15T15:10:48;6.70;;;2.13;;
15536;SDS011;7870;52.448;13.270;2022-11-15T15:13:16;5.30;;;2.38;;
15536;SDS011;7870;52.448;13.270;2022-11-15T15:15:43;4.78;;;2.00;;
15536;SDS011;7870;52.448;13.270;2022-11-15T15:18:09;7.50;;;2.63;;
15536;SDS011;7870;52.448;13.270;2022-11-15T15:20:37;4.88;;;2.08;;
15536;SDS011;7870;52.448;13.270;2022-11-15T15:23:05;5.20;;;2.25;;
15536;SDS011;7870;52.448;13.270;2022-11-15T15:25:32;7.22;;;2.60;;
15536;SDS011;7870;52.448;13.270;2022-11-15T15:27:59;5.70;;;2.42;;
15536;SDS011;7870;52.448;13.270;2022-11-15T15:30:26;5.40;;;2.08;;
15536;SDS011;7870;52.448;13.270;2022-11-15T15:32:52;6.05;;;2.00;;
15536;SDS011;7870;52.448;13.270;2022-11-15T15:35:19;5.88;;;2.42;;
15536;SDS011;7870;52.448;13.270;2022-11-15T15:37:47;4.30;;;2.03;;
15536;SDS011;7870;52.448;13.270;2022-11-15T15:40:15;4.57;;;1.90;;
15536;SDS011;7870;52.448;13.270;2022-11-15T15:42:42;4.40;;;2.13;;
15536;SDS011;7870;52.448;13.270;2022-11-15T15:45:08;9.57;;;2.72;;
15536;SDS011;7870;52.448;13.270;2022-11-15T15:47:35;4.57;;;2.60;;
15536;SDS011;7870;52.448;13.270;2022-11-15T15:50:02;3.30;;;1.88;;
15536;SDS011;7870;52.448;13.270;2022-11-15T15:52:28;5.47;;;2.00;;
15536;SDS011;7870;52.448;13.270;2022-11-15T15:54:54;7.85;;;2.80;;
15536;SDS011;7870;52.448;13.270;2022-11-15T15:57:21;5.93;;;2.15;;
15536;SDS011;7870;52.448;13.270;2022-11-15T15:59:47;6.45;;;2.45;;
15536;SDS011;7870;52.448;13.270;2022-11-15T16:02:14;3.78;;;1.92;;
15536;SDS011;7870;52.448;13.270;2022-11-15T16:04:40;3.85;;;1.92;;
15536;SDS011;7870;52.448;13.270;2022-11-15T16:07:07;6.22;;;1.92;;
15536;SDS011;7870;52.448;13.270;2022-11-15T16:09:41;6.25;;;2.35;;
15536;SDS011;7870;52.448;13.270;2022-11-15T16:12:27;3.83;;;1.77;;
15536;SDS011;7870;52.448;13.270;2022-11-15T16:14:53;6.22;;;2.20;;
15536;SDS011;7870;52.448;13.270;2022-11-15T16:17:20;6.25;;;2.35;;
15536;SDS011;7870;52.448;13.270;2022-11-15T16:19:47;6.97;;;2.33;;
15536;SDS011;7870;52.448;13.270;2022-11-15T16:22:13;5.70;;;2.58;;
15536;SDS011;7870;52.448;13.270;2022-11-15T16:24:39;6.90;;;2.55;;
15536;SDS011;7870;52.448;13.270;2022-11-15T16:27:10;4.78;;;2.22;;
15536;SDS011;7870;52.448;13.270;2022-11-15T16:29:38;6.50;;;2.45;;
15536;SDS011;7870;52.448;13.270;2022-11-15T16:32:04;3.60;;;2.15;;
15536;SDS011;7870;52.448;13.270;2022-11-15T16:34:31;5.32;;;2.13;;
15536;SDS011;7870;52.448;13.270;2022-11-15T16:37:03;5.00;;;2.28;;
15536;SDS011;7870;52.448;13.270;2022-11-15T16:39:30;12.15;;;2.90;;
15536;SDS011;7870;52.448;13.270;2022-11-15T16:41:57;5.22;;;2.25;;
15536;SDS011;7870;52.448;13.270;2022-11-15T16:44:24;6.85;;;2.72;;
15536;SDS011;7870;52.448;13.270;2022-11-15T16:46:50;7.00;;;2.45;;
15536;SDS011;7870;52.448;13.270;2022-11-15T16:49:17;6.43;;;2.35;;
15536;SDS011;7870;52.448;13.270;2022-11-15T16:51:44;5.85;;;2.45;;
15536;SDS011;7870;52.448;13.270;2022-11-15T16:54:11;4.72;;;2.70;;
15536;SDS011;7870;52.448;13.270;2022-11-15T16:56:38;8.40;;;3.40;;
15536;SDS011;7870;52.448;13.270;2022-11-15T16:59:04;6.35;;;2.90;;
15536;SDS011;7870;52.448;13.270;2022-11-15T17:01:32;7.75;;;2.83;;
15536;SDS011;7870;52.448;13.270;2022-11-15T17:04:00;5.55;;;2.97;;
15536;SDS011;7870;52.448;13.270;2022-11-15T17:06:38;6.65;;;2.88;;
15536;SDS011;7870;52.448;13.270;2022-11-15T17:09:06;6.70;;;2.30;;
15536;SDS011;7870;52.448;13.270;2022-11-15T17:11:32;6.00;;;2.80;;
15536;SDS011;7870;52.448;13.270;2022-11-15T17:13:58;5.57;;;2.65;;
15536;SDS011;7870;52.448;13.270;2022-11-15T17:16:25;5.13;;;2.42;;
15536;SDS011;7870;52.448;13.270;2022-11-15T17:18:51;8.40;;;3.05;;
15536;SDS011;7870;52.448;13.270;2022-11-15T17:21:19;9.45;;;3.10;;
15536;SDS011;7870;52.448;13.270;2022-11-15T17:23:46;7.57;;;3.10;;
15536;SDS011;7870;52.448;13.270;2022-11-15T17:26:13;7.65;;;2.70;;
15536;SDS011;7870;52.448;13.270;2022-11-15T17:28:58;6.55;;;2.67;;